createdAt,value
2018-08-28T00:00:42.995Z,98385.00
2018-08-28T00:03:13.187Z,98384.00
2018-08-28T00:05:44.343Z,98383.00
2018-08-28T00:08:14.475Z,98383.00
2018-08-28T00:10:44.616Z,98375.00
2018-08-28T00:13:14.725Z,98368.00
2018-08-28T00:15:44.929Z,98369.00
2018-08-28T00:18:15.073Z,98360.00
2018-08-28T00:20:45.242Z,98359.00
2018-08-28T00:23:15.306Z,98371.00
2018-08-28T00:25:45.502Z,98390.00
2018-08-28T00:28:15.714Z,98388.00
2018-08-28T00:30:45.843Z,98392.00
2018-08-28T00:33:16.169Z,98384.00
2018-08-28T00:35:46.358Z,98391.00
2018-08-28T00:38:16.895Z,98393.00
2018-08-28T00:40:47.607Z,98390.00
2018-08-28T00:43:17.744Z,98398.00
2018-08-28T00:45:47.819Z,98397.00
2018-08-28T00:48:17.883Z,98400.00
2018-08-28T00:50:47.991Z,98400.00
2018-08-28T00:53:18.050Z,98405.00
2018-08-28T00:55:48.110Z,98403.00
2018-08-28T00:58:18.220Z,98407.00
2018-08-28T01:00:48.715Z,98410.00
2018-08-28T01:03:18.912Z,98407.00
2018-08-28T01:05:49.073Z,98406.00
2018-08-28T01:08:19.188Z,98413.00
2018-08-28T01:10:49.407Z,98412.00
2018-08-28T01:13:19.524Z,98418.00
2018-08-28T01:15:49.647Z,98416.00
2018-08-28T01:18:19.728Z,98415.00
2018-08-28T01:20:49.848Z,98416.00
2018-08-28T01:23:19.942Z,98417.00
2018-08-28T01:25:50.158Z,98418.00
2018-08-28T01:28:20.314Z,98421.00
2018-08-28T01:30:50.396Z,98419.00
2018-08-28T01:33:20.548Z,98419.00
2018-08-28T01:35:50.700Z,98426.00
2018-08-28T01:38:20.814Z,98425.00
2018-08-28T01:40:50.924Z,98427.00
2018-08-28T01:43:22.892Z,98432.00
2018-08-28T01:45:54.744Z,98435.00
2018-08-28T01:48:24.814Z,98433.00
2018-08-28T01:50:55.028Z,98441.00
2018-08-28T01:53:25.276Z,98438.00
2018-08-28T01:55:55.452Z,98438.00
2018-08-28T01:58:25.520Z,98435.00
2018-08-28T02:00:55.620Z,98431.00
2018-08-28T02:03:26.799Z,98425.00
2018-08-28T02:05:56.936Z,98421.00
2018-08-28T02:08:27.106Z,98416.00
2018-08-28T02:10:57.244Z,98420.00
2018-08-28T02:13:27.314Z,98420.00
2018-08-28T02:15:57.975Z,98422.00
2018-08-28T02:18:28.088Z,98415.00
2018-08-28T02:20:58.174Z,98417.00
2018-08-28T02:23:28.205Z,98421.00
2018-08-28T02:25:58.406Z,98421.00
2018-08-28T02:28:28.584Z,98422.00
2018-08-28T02:30:58.748Z,98423.00
2018-08-28T02:33:28.928Z,98419.00
2018-08-28T02:35:59.100Z,98418.00
2018-08-28T02:38:29.225Z,98421.00
2018-08-28T02:40:59.300Z,98420.00
2018-08-28T02:43:29.540Z,98427.00
2018-08-28T02:45:59.667Z,98430.00
2018-08-28T02:48:30.256Z,98429.00
2018-08-28T02:51:00.338Z,98430.00
2018-08-28T02:53:30.461Z,98429.00
2018-08-28T02:56:01.168Z,98439.00
2018-08-28T02:58:31.227Z,98433.00
2018-08-28T03:01:01.298Z,98438.00
2018-08-28T03:03:31.418Z,98435.00
2018-08-28T03:06:01.693Z,98439.00
2018-08-28T03:08:32.497Z,98440.00
2018-08-28T03:11:02.647Z,98442.00
2018-08-28T03:13:32.773Z,98445.00
2018-08-28T03:16:02.888Z,98443.00
2018-08-28T03:18:32.932Z,98443.00
2018-08-28T03:21:02.985Z,98444.00
2018-08-28T03:23:33.009Z,98448.00
2018-08-28T03:26:03.159Z,98453.00
2018-08-28T03:28:33.207Z,98450.00
2018-08-28T03:31:03.449Z,98453.00
2018-08-28T03:33:33.487Z,98448.00
2018-08-28T03:36:03.711Z,98452.00
2018-08-28T03:38:34.073Z,98450.00
2018-08-28T03:41:04.257Z,98456.00
2018-08-28T03:43:34.329Z,98462.00
2018-08-28T03:46:04.558Z,98463.00
2018-08-28T03:48:34.637Z,98467.00
2018-08-28T03:51:04.755Z,98465.00
2018-08-28T03:53:34.865Z,98470.00
2018-08-28T03:56:05.457Z,98471.00
2018-08-28T03:58:35.461Z,98467.00
2018-08-28T04:01:05.527Z,98470.00
2018-08-28T04:03:35.755Z,98472.00
2018-08-28T04:06:06.147Z,98479.00
2018-08-28T04:08:36.192Z,98476.00
2018-08-28T04:11:06.345Z,98476.00
2018-08-28T04:13:37.652Z,98476.00
2018-08-28T04:16:08.531Z,98472.00
2018-08-28T04:18:38.629Z,98471.00
2018-08-28T04:21:08.775Z,98477.00
2018-08-28T04:23:38.878Z,98474.00
2018-08-28T04:26:08.967Z,98475.00
2018-08-28T04:28:39.545Z,98466.00
2018-08-28T04:31:09.687Z,98477.00
2018-08-28T04:33:39.859Z,98481.00
2018-08-28T04:36:10.443Z,98485.00
2018-08-28T04:38:40.556Z,98481.00
2018-08-28T04:41:10.949Z,98493.00
2018-08-28T04:43:41.131Z,98490.00
2018-08-28T04:46:11.181Z,98493.00
2018-08-28T04:48:41.322Z,98496.00
2018-08-28T04:51:11.413Z,98495.00
2018-08-28T04:53:41.536Z,98500.00
2018-08-28T04:56:13.177Z,98501.00
2018-08-28T04:58:43.243Z,98498.00
2018-08-28T05:01:13.776Z,98503.00
2018-08-28T05:03:43.933Z,98507.00
2018-08-28T05:06:13.927Z,98509.00
2018-08-28T05:08:43.967Z,98515.00
2018-08-28T05:11:14.221Z,98516.00
2018-08-28T05:13:44.395Z,98516.00
2018-08-28T05:16:14.415Z,98513.00
2018-08-28T05:18:44.501Z,98514.00
2018-08-28T05:21:14.584Z,98515.00
2018-08-28T05:23:44.621Z,98517.00
2018-08-28T05:26:14.671Z,98519.00
2018-08-28T05:28:45.511Z,98518.00
2018-08-28T05:31:15.777Z,98519.00
2018-08-28T05:33:45.851Z,98520.00
2018-08-28T05:36:16.007Z,98525.00
2018-08-28T05:38:46.011Z,98526.00
2018-08-28T05:41:16.247Z,98527.00
2018-08-28T05:43:46.367Z,98539.00
2018-08-28T05:46:16.426Z,98532.00
2018-08-28T05:48:46.539Z,98533.00
2018-08-28T05:51:16.694Z,98530.00
2018-08-28T05:53:46.773Z,98531.00
2018-08-28T05:56:17.005Z,98533.00
2018-08-28T05:58:47.702Z,98532.00
2018-08-28T06:01:17.920Z,98538.00
2018-08-28T06:03:47.959Z,98541.00
2018-08-28T06:06:18.060Z,98535.00
2018-08-28T06:08:48.152Z,98538.00
2018-08-28T06:11:18.581Z,98541.00
2018-08-28T06:13:48.703Z,98544.00
2018-08-28T06:16:19.281Z,98547.00
2018-08-28T06:18:49.401Z,98548.00
2018-08-28T06:21:19.485Z,98544.00
2018-08-28T06:23:49.619Z,98549.00
2018-08-28T06:26:19.861Z,98551.00
2018-08-28T06:28:49.851Z,98549.00
2018-08-28T06:31:20.503Z,98551.00
2018-08-28T06:33:51.250Z,98552.00
2018-08-28T06:36:21.412Z,98552.00
2018-08-28T06:38:51.593Z,98551.00
2018-08-28T06:41:21.703Z,98556.00
2018-08-28T06:43:52.595Z,98555.00
2018-08-28T06:46:22.611Z,98557.00
2018-08-28T06:48:52.800Z,98552.00
2018-08-28T06:51:23.375Z,98550.00
2018-08-28T06:53:53.437Z,98554.00
2018-08-28T06:56:23.575Z,98556.00
2018-08-28T06:58:53.649Z,98555.00
2018-08-28T07:01:23.993Z,98552.00
2018-08-28T07:03:55.125Z,98558.00
2018-08-28T07:06:25.401Z,98560.00
2018-08-28T07:08:56.154Z,98556.00
2018-08-28T07:11:26.322Z,98555.00
2018-08-28T07:13:57.390Z,98552.00
2018-08-28T07:16:27.515Z,98556.00
2018-08-28T07:18:57.578Z,98551.00
2018-08-28T07:21:27.646Z,98557.00
2018-08-28T07:23:58.104Z,98558.00
2018-08-28T07:26:29.106Z,98564.00
2018-08-28T07:28:59.266Z,98562.00
2018-08-28T07:31:29.589Z,98561.00
2018-08-28T07:33:59.568Z,98551.00
2018-08-28T07:36:29.686Z,98562.00
2018-08-28T07:38:59.828Z,98564.00
2018-08-28T07:41:29.893Z,98563.00
2018-08-28T07:43:59.941Z,98563.00
2018-08-28T07:46:29.998Z,98557.00
2018-08-28T07:49:00.133Z,98556.00
2018-08-28T07:51:30.314Z,98550.00
2018-08-28T07:54:00.456Z,98554.00
2018-08-28T07:56:30.732Z,98554.00
2018-08-28T07:59:00.886Z,98550.00
2018-08-28T08:01:31.073Z,98555.00
2018-08-28T08:04:01.012Z,98555.00
2018-08-28T08:06:31.069Z,98551.00
2018-08-28T08:09:01.733Z,98550.00
2018-08-28T08:11:31.829Z,98551.00
2018-08-28T08:14:01.998Z,98552.00
2018-08-28T08:16:32.098Z,98561.00
2018-08-28T08:19:02.355Z,98556.00
2018-08-28T08:21:33.110Z,98570.00
2018-08-28T08:24:03.142Z,98569.00
2018-08-28T08:26:33.358Z,98569.00
2018-08-28T08:29:03.498Z,98571.00
2018-08-28T08:31:34.163Z,98567.00
2018-08-28T08:34:04.300Z,98565.00
2018-08-28T08:36:34.459Z,98572.00
2018-08-28T08:39:06.143Z,98566.00
2018-08-28T08:41:36.385Z,98564.00
2018-08-28T08:44:06.592Z,98565.00
2018-08-28T08:46:36.871Z,98561.00
2018-08-28T08:49:07.055Z,98557.00
2018-08-28T08:51:37.203Z,98556.00
2018-08-28T08:54:07.434Z,98551.00
2018-08-28T08:56:37.604Z,98548.00
2018-08-28T08:59:07.785Z,98550.00
2018-08-28T09:01:37.885Z,98552.00
2018-08-28T09:04:08.191Z,98553.00
2018-08-28T09:06:38.372Z,98545.00
2018-08-28T09:09:08.547Z,98546.00
2018-08-28T09:11:38.632Z,98551.00
2018-08-28T09:14:08.830Z,98552.00
2018-08-28T09:16:38.980Z,98547.00
2018-08-28T09:19:09.078Z,98551.00
2018-08-28T09:21:39.406Z,98549.00
2018-08-28T09:24:09.496Z,98551.00
2018-08-28T09:26:39.617Z,98544.00
2018-08-28T09:29:09.790Z,98538.00
2018-08-28T09:31:39.984Z,98542.00
2018-08-28T09:34:10.083Z,98537.00
2018-08-28T09:36:40.421Z,98539.00
2018-08-28T09:39:10.625Z,98538.00
2018-08-28T09:41:40.866Z,98541.00
2018-08-28T09:44:11.036Z,98542.00
2018-08-28T09:46:41.249Z,98542.00
2018-08-28T09:49:11.996Z,98539.00
2018-08-28T09:51:42.209Z,98529.00
2018-08-28T09:54:12.327Z,98532.00
2018-08-28T09:56:42.528Z,98533.00
2018-08-28T09:59:12.512Z,98534.00
2018-08-28T10:01:44.455Z,98537.00
2018-08-28T10:04:15.696Z,98525.00
2018-08-28T10:06:45.825Z,98519.00
2018-08-28T10:09:17.396Z,98519.00
2018-08-28T10:11:47.727Z,98521.00
2018-08-28T10:14:17.779Z,98532.00
2018-08-28T10:16:47.874Z,98524.00
2018-08-28T10:19:18.782Z,98523.00
2018-08-28T10:21:48.953Z,98523.00
2018-08-28T10:24:18.991Z,98522.00
2018-08-28T10:26:49.205Z,98517.00
2018-08-28T10:29:19.262Z,98519.00
2018-08-28T10:31:50.394Z,98518.00
2018-08-28T10:34:20.551Z,98514.00
2018-08-28T10:36:50.728Z,98511.00
2018-08-28T10:39:20.878Z,98505.00
2018-08-28T10:41:51.615Z,98505.00
2018-08-28T10:44:21.651Z,98504.00
2018-08-28T10:46:51.911Z,98498.00
2018-08-28T10:49:21.945Z,98499.00
2018-08-28T10:51:52.737Z,98499.00
2018-08-28T10:54:23.042Z,98502.00
2018-08-28T10:56:53.185Z,98501.00
2018-08-28T10:59:23.285Z,98499.00
2018-08-28T11:01:53.426Z,98495.00
2018-08-28T11:04:23.612Z,98494.00
2018-08-28T11:06:54.545Z,98489.00
2018-08-28T11:09:24.615Z,98491.00
2018-08-28T11:11:54.759Z,98488.00
2018-08-28T11:14:24.817Z,98486.00
2018-08-28T11:16:56.730Z,98479.00
2018-08-28T11:19:26.855Z,98481.00
2018-08-28T11:21:57.071Z,98476.00
2018-08-28T11:24:27.251Z,98480.00
2018-08-28T11:26:57.581Z,98476.00
2018-08-28T11:29:27.720Z,98473.00
2018-08-28T11:31:57.780Z,98475.00
2018-08-28T11:34:27.833Z,98474.00
2018-08-28T11:36:57.896Z,98471.00
2018-08-28T11:39:28.146Z,98474.00
2018-08-28T11:41:58.228Z,98471.00
2018-08-28T11:44:28.379Z,98474.00
2018-08-28T11:46:58.422Z,98470.00
2018-08-28T11:49:28.532Z,98467.00
2018-08-28T11:51:58.630Z,98468.00
2018-08-28T11:54:28.777Z,98467.00
2018-08-28T11:56:58.896Z,98467.00
2018-08-28T11:59:28.982Z,98468.00
2018-08-28T12:01:59.210Z,98467.00
2018-08-28T12:04:29.166Z,98457.00
2018-08-28T12:06:59.403Z,98460.00
2018-08-28T12:09:29.412Z,98454.00
2018-08-28T12:11:59.590Z,98453.00
2018-08-28T12:14:29.681Z,98451.00
2018-08-28T12:17:00.735Z,98442.00
2018-08-28T12:19:30.917Z,98434.00
2018-08-28T12:22:01.091Z,98432.00
2018-08-28T12:24:31.410Z,98429.00
2018-08-28T12:27:01.635Z,98427.00
2018-08-28T12:29:32.440Z,98423.00
2018-08-28T12:32:02.589Z,98425.00
2018-08-28T12:34:32.652Z,98422.00
2018-08-28T12:37:03.202Z,98419.00
2018-08-28T12:39:33.707Z,98417.00
2018-08-28T12:42:03.976Z,98414.00
2018-08-28T12:44:34.132Z,98403.00
2018-08-28T12:47:04.308Z,98402.00
2018-08-28T12:49:34.618Z,98401.00
2018-08-28T12:52:04.702Z,98391.00
2018-08-28T12:54:34.802Z,98391.00
2018-08-28T12:57:05.248Z,98388.00
2018-08-28T12:59:35.306Z,98392.00
2018-08-28T13:02:05.706Z,98387.00
2018-08-28T13:04:35.842Z,98383.00
2018-08-28T13:07:06.176Z,98378.00
2018-08-28T13:09:36.309Z,98382.00
2018-08-28T13:12:06.487Z,98374.00
2018-08-28T13:14:36.557Z,98371.00
2018-08-28T13:17:06.761Z,98369.00
2018-08-28T13:19:36.873Z,98368.00
2018-08-28T13:22:07.532Z,98371.00
2018-08-28T13:24:37.741Z,98370.00
2018-08-28T13:27:07.905Z,98368.00
2018-08-28T13:29:37.959Z,98363.00
2018-08-28T13:32:08.099Z,98355.00
2018-08-28T13:34:39.149Z,98352.00
2018-08-28T13:37:09.227Z,98350.00
2018-08-28T13:39:39.385Z,98350.00
2018-08-28T13:42:09.545Z,98355.00
2018-08-28T13:44:39.695Z,98349.00
2018-08-28T13:47:10.036Z,98350.00
2018-08-28T13:49:40.171Z,98344.00
2018-08-28T13:52:10.275Z,98348.00
2018-08-28T13:54:40.323Z,98347.00
2018-08-28T13:57:10.537Z,98348.00
2018-08-28T13:59:41.124Z,98345.00
2018-08-28T14:02:12.341Z,98340.00
2018-08-28T14:04:42.401Z,98343.00
2018-08-28T14:07:12.867Z,98338.00
2018-08-28T14:09:42.993Z,98333.00
2018-08-28T14:12:13.141Z,98329.00
2018-08-28T14:14:44.165Z,98329.00
2018-08-28T14:17:14.445Z,98319.00
2018-08-28T14:19:44.489Z,98315.00
2018-08-28T14:22:14.686Z,98315.00
2018-08-28T14:24:45.077Z,98313.00
2018-08-28T14:27:15.191Z,98315.00
2018-08-28T14:29:45.238Z,98314.00
2018-08-28T14:32:15.618Z,98307.00
2018-08-28T14:34:45.917Z,98308.00
2018-08-28T14:37:16.096Z,98304.00
2018-08-28T14:39:46.283Z,98303.00
2018-08-28T14:42:17.030Z,98301.00
2018-08-28T14:44:47.676Z,98302.00
2018-08-28T14:47:17.814Z,98301.00
2018-08-28T14:49:47.942Z,98305.00
2018-08-28T14:52:18.052Z,98300.00
2018-08-28T14:54:48.328Z,98301.00
2018-08-28T14:57:18.454Z,98306.00
2018-08-28T14:59:48.580Z,98299.00
2018-08-28T15:02:18.741Z,98296.00
2018-08-28T15:04:49.475Z,98294.00
2018-08-28T15:07:19.562Z,98294.00
2018-08-28T15:09:49.636Z,98287.00
2018-08-28T15:12:19.814Z,98287.00
2018-08-28T15:14:50.761Z,98288.00
2018-08-28T15:17:20.998Z,98292.00
2018-08-28T15:19:51.215Z,98287.00
2018-08-28T15:22:21.836Z,98290.00
2018-08-28T15:24:52.930Z,98285.00
2018-08-28T15:27:23.143Z,98282.00
2018-08-28T15:29:53.227Z,98279.00
2018-08-28T15:32:23.348Z,98271.00
2018-08-28T15:34:53.583Z,98266.00
2018-08-28T15:37:25.274Z,98263.00
2018-08-28T15:39:55.392Z,98262.00
2018-08-28T15:42:25.457Z,98254.00
2018-08-28T15:44:56.532Z,98257.00
2018-08-28T15:47:27.273Z,98252.00
2018-08-28T15:50:07.069Z,98248.00
2018-08-28T15:52:37.220Z,98246.00
2018-08-28T15:55:07.420Z,98248.00
2018-08-28T15:57:37.587Z,98250.00
2018-08-28T16:00:08.654Z,98247.00
2018-08-28T16:02:38.852Z,98239.00
2018-08-28T16:05:08.907Z,98242.00
2018-08-28T16:07:45.476Z,98236.00
2018-08-28T16:10:15.492Z,98241.00
2018-08-28T16:12:46.222Z,98233.00
2018-08-28T16:15:17.204Z,98240.00
2018-08-28T16:17:47.217Z,98240.00
2018-08-28T16:20:17.346Z,98242.00
2018-08-28T16:22:51.184Z,98237.00
2018-08-28T16:25:21.476Z,98236.00
2018-08-28T16:27:51.704Z,98240.00
2018-08-28T16:30:22.480Z,98236.00
2018-08-28T16:32:52.622Z,98226.00
2018-08-28T16:35:22.811Z,98232.00
2018-08-28T16:37:53.068Z,98234.00
2018-08-28T16:40:23.198Z,98230.00
2018-08-28T16:42:53.451Z,98223.00
2018-08-28T16:45:23.553Z,98225.00
2018-08-28T16:47:53.691Z,98224.00
2018-08-28T16:50:23.762Z,98226.00
2018-08-28T16:52:53.800Z,98222.00
2018-08-28T16:55:23.888Z,98227.00
2018-08-28T16:57:54.014Z,98223.00
2018-08-28T17:00:24.064Z,98224.00
2018-08-28T17:02:54.202Z,98221.00
2018-08-28T17:05:24.450Z,98217.00
2018-08-28T17:07:54.661Z,98212.00
2018-08-28T17:10:24.822Z,98215.00
2018-08-28T17:12:55.744Z,98211.00
2018-08-28T17:15:26.042Z,98214.00
2018-08-28T17:17:56.714Z,98216.00
2018-08-28T17:20:26.891Z,98213.00
2018-08-28T17:22:57.003Z,98217.00
2018-08-28T17:25:27.185Z,98217.00
2018-08-28T17:27:57.404Z,98216.00
2018-08-28T17:30:27.541Z,98221.00
2018-08-28T17:32:58.647Z,98224.00
2018-08-28T17:35:28.860Z,98231.00
2018-08-28T17:37:59.021Z,98226.00
2018-08-28T17:40:29.117Z,98226.00
2018-08-28T17:42:59.323Z,98237.00
2018-08-28T17:45:29.539Z,98232.00
2018-08-28T17:48:00.580Z,98236.00
2018-08-28T17:50:30.639Z,98238.00
2018-08-28T17:53:00.902Z,98238.00
2018-08-28T17:55:31.108Z,98242.00
2018-08-28T17:58:01.704Z,98241.00
2018-08-28T18:00:31.802Z,98244.00
2018-08-28T18:03:01.932Z,98247.00
2018-08-28T18:05:32.087Z,98247.00
2018-08-28T18:08:02.256Z,98247.00
2018-08-28T18:10:32.347Z,98252.00
2018-08-28T18:13:02.381Z,98253.00
2018-08-28T18:15:32.593Z,98254.00
2018-08-28T18:18:02.708Z,98254.00
2018-08-28T18:20:33.061Z,98255.00
2018-08-28T18:23:03.807Z,98261.00
2018-08-28T18:25:34.032Z,98256.00
2018-08-28T18:28:04.203Z,98260.00
2018-08-28T18:30:34.316Z,98265.00
2018-08-28T18:33:04.552Z,98264.00
2018-08-28T18:35:34.699Z,98269.00
2018-08-28T18:38:05.573Z,98266.00
2018-08-28T18:40:36.049Z,98266.00
2018-08-28T18:43:06.344Z,98264.00
2018-08-28T18:45:36.617Z,98268.00
2018-08-28T18:48:07.482Z,98263.00
2018-08-28T18:50:37.731Z,98274.00
2018-08-28T18:53:07.987Z,98267.00
2018-08-28T18:55:38.117Z,98266.00
2018-08-28T18:58:08.966Z,98263.00
2018-08-28T19:00:39.280Z,98264.00
2018-08-28T19:03:10.649Z,98265.00
2018-08-28T19:05:40.849Z,98263.00
2018-08-28T19:08:11.069Z,98259.00
2018-08-28T19:10:41.276Z,98267.00
2018-08-28T19:13:11.956Z,98265.00
2018-08-28T19:15:42.049Z,98266.00
2018-08-28T19:18:12.271Z,98265.00
2018-08-28T19:20:42.369Z,98270.00
2018-08-28T19:23:12.510Z,98273.00
2018-08-28T19:25:42.659Z,98277.00
2018-08-28T19:28:12.844Z,98277.00
2018-08-28T19:30:42.967Z,98279.00
2018-08-28T19:33:13.216Z,98275.00
2018-08-28T19:35:44.013Z,98274.00
2018-08-28T19:38:14.601Z,98272.00
2018-08-28T19:40:44.829Z,98269.00
2018-08-28T19:43:15.391Z,98270.00
2018-08-28T19:45:45.553Z,98264.00
2018-08-28T19:48:15.762Z,98265.00
2018-08-28T19:50:45.948Z,98261.00
2018-08-28T19:53:17.009Z,98263.00
2018-08-28T19:55:47.192Z,98262.00
2018-08-28T19:58:17.974Z,98264.00
2018-08-28T20:00:48.074Z,98260.00
2018-08-28T20:03:18.383Z,98259.00
2018-08-28T20:05:48.768Z,98262.00
2018-08-28T20:08:19.059Z,98267.00
2018-08-28T20:10:49.120Z,98263.00
2018-08-28T20:13:19.294Z,98265.00
2018-08-28T20:15:49.525Z,98266.00
2018-08-28T20:18:19.641Z,98267.00
2018-08-28T20:20:49.899Z,98266.00
2018-08-28T20:23:20.077Z,98267.00
2018-08-28T20:25:50.159Z,98265.00
2018-08-28T20:28:20.372Z,98266.00
2018-08-28T20:30:50.580Z,98274.00
2018-08-28T20:33:20.761Z,98271.00
2018-08-28T20:35:50.882Z,98263.00
2018-08-28T20:38:20.987Z,98267.00
2018-08-28T20:40:51.129Z,98265.00
2018-08-28T20:43:21.235Z,98266.00
2018-08-28T20:45:51.343Z,98262.00
2018-08-28T20:48:21.487Z,98261.00
2018-08-28T20:50:52.175Z,98255.00
2018-08-28T20:53:22.350Z,98255.00
2018-08-28T20:55:52.720Z,98257.00
2018-08-28T20:58:23.508Z,98257.00
2018-08-28T21:00:53.584Z,98255.00
2018-08-28T21:03:23.728Z,98257.00
2018-08-28T21:05:53.971Z,98255.00
2018-08-28T21:08:24.202Z,98252.00
2018-08-28T21:10:54.354Z,98253.00
2018-08-28T21:13:24.565Z,98255.00
2018-08-28T21:15:54.830Z,98253.00
2018-08-28T21:18:24.947Z,98251.00
2018-08-28T21:20:55.333Z,98249.00
2018-08-28T21:23:25.569Z,98248.00
2018-08-28T21:25:55.782Z,98247.00
2018-08-28T21:28:26.058Z,98243.00
2018-08-28T21:30:56.268Z,98244.00
2018-08-28T21:33:26.603Z,98238.00
2018-08-28T21:35:56.722Z,98231.00
2018-08-28T21:38:26.872Z,98233.00
2018-08-28T21:40:56.945Z,98231.00
2018-08-28T21:43:27.102Z,98236.00
2018-08-28T21:45:58.202Z,98236.00
2018-08-28T21:48:28.761Z,98237.00
2018-08-28T21:50:59.067Z,98230.00
2018-08-28T21:53:29.189Z,98230.00
2018-08-28T21:55:59.445Z,98231.00
2018-08-28T21:58:29.585Z,98232.00
2018-08-28T22:01:04.853Z,98234.00
2018-08-28T22:03:35.080Z,98229.00
2018-08-28T22:06:05.425Z,98231.00
2018-08-28T22:08:35.491Z,98228.00
2018-08-28T22:11:05.700Z,98224.00
2018-08-28T22:13:35.889Z,98220.00
2018-08-28T22:16:07.085Z,98222.00
2018-08-28T22:18:37.222Z,98222.00
2018-08-28T22:21:07.337Z,98219.00
2018-08-28T22:23:37.579Z,98214.00
2018-08-28T22:26:07.664Z,98213.00
2018-08-28T22:28:37.869Z,98209.00
2018-08-28T22:31:08.091Z,98208.00
2018-08-28T22:33:38.177Z,98203.00
2018-08-28T22:36:08.229Z,98197.00
2018-08-28T22:38:38.420Z,98200.00
2018-08-28T22:41:08.575Z,98198.00
2018-08-28T22:43:39.005Z,98199.00
2018-08-28T22:46:09.080Z,98193.00
2018-08-28T22:48:39.301Z,98195.00
2018-08-28T22:51:09.525Z,98197.00
2018-08-28T22:53:39.636Z,98201.00
2018-08-28T22:56:09.687Z,98194.00
2018-08-28T22:58:39.811Z,98190.00
2018-08-28T23:01:09.891Z,98189.00
2018-08-28T23:03:39.986Z,98188.00
2018-08-28T23:06:10.289Z,98197.00
2018-08-28T23:08:40.497Z,98199.00
2018-08-28T23:11:10.711Z,98200.00
2018-08-28T23:13:40.856Z,98196.00
2018-08-28T23:16:10.923Z,98195.00
2018-08-28T23:18:41.112Z,98198.00
2018-08-28T23:21:11.252Z,98197.00
2018-08-28T23:23:41.339Z,98197.00
2018-08-28T23:26:11.372Z,98200.00
2018-08-28T23:28:41.598Z,98197.00
2018-08-28T23:31:12.277Z,98194.00
2018-08-28T23:33:42.498Z,98196.00
2018-08-28T23:36:12.726Z,98194.00
2018-08-28T23:38:43.030Z,98186.00
2018-08-28T23:41:13.237Z,98189.00
2018-08-28T23:43:44.074Z,98188.00
2018-08-28T23:46:14.363Z,98179.00
2018-08-28T23:48:44.512Z,98175.00
2018-08-28T23:51:14.633Z,98174.00
2018-08-28T23:53:44.772Z,98171.00
2018-08-28T23:56:14.892Z,98167.00
2018-08-28T23:58:45.088Z,98160.00
